Time;durP1;ratioP1;P1;durP2;ratioP2;P2;SDS_P1;SDS_P2;PMS_P1;PMS_P2;Temp;Humidity;BMP_temperature;BMP_pressure;BME280_temperature;BME280_humidity;BME280_pressure;Samples;Min_cycle;Max_cycle;Signal;HPM_P1;HPM_P2
2023/02/27 00:00:54;;;;;;;;;;;0.00;93.70;;;;;;4972036;28;20061;-62
2023/02/27 00:03:20;;;;;;;6.63;0.70;;;-0.10;93.80;;;;;;4961002;28;19928;-62
2023/02/27 00:05:46;;;;;;;5.07;0.57;;;0.00;94.10;;;;;;4971112;28;20042;-62
2023/02/27 00:08:12;;;;;;;2.22;1.00;;;-0.10;94.10;;;;;;4971200;28;20057;-62
2023/02/27 00:10:38;;;;;;;2.53;0.70;;;-0.10;94.90;;;;;;4973853;28;20047;-62
2023/02/27 00:13:03;;;;;;;6.88;1.08;;;0.00;94.60;;;;;;4972233;28;20499;-62
2023/02/27 00:15:31;;;;;;;11.65;0.77;;;0.00;94.90;;;;;;4976824;28;20034;-62
2023/02/27 00:17:57;;;;;;;2.30;0.68;;;0.00;95.00;;;;;;4979996;28;20042;-62
2023/02/27 00:20:23;;;;;;;5.07;0.70;;;0.10;95.30;;;;;;4977951;28;20059;-62
2023/02/27 00:22:50;;;;;;;3.78;0.90;;;0.00;95.20;;;;;;4979607;28;20133;-62
2023/02/27 00:25:17;;;;;;;3.83;0.80;;;0.00;95.20;;;;;;4978944;28;20042;-62
2023/02/27 00:27:42;;;;;;;2.08;0.60;;;0.00;95.50;;;;;;4963060;28;20050;-62
2023/02/27 00:30:12;;;;;;;1.85;0.50;;;0.00;95.70;;;;;;4953851;28;20065;-62
2023/02/27 00:32:38;;;;;;;2.15;0.70;;;-0.10;95.70;;;;;;4980208;28;20125;-62
2023/02/27 00:35:05;;;;;;;8.05;0.63;;;-0.10;95.40;;;;;;4962716;28;20121;-62
2023/02/27 00:37:31;;;;;;;1.55;0.63;;;-0.10;95.10;;;;;;4976825;28;20053;-62
2023/02/27 00:39:57;;;;;;;3.22;0.60;;;-0.20;95.00;;;;;;4982830;28;20038;-62
2023/02/27 00:42:23;;;;;;;3.35;0.68;;;-0.30;94.80;;;;;;4978717;28;20508;-62
2023/02/27 00:44:48;;;;;;;2.70;0.73;;;-0.30;95.20;;;;;;4977848;28;20122;-62
2023/02/27 00:47:14;;;;;;;3.40;0.70;;;-0.40;94.90;;;;;;4983258;28;20093;-62
2023/02/27 00:49:40;;;;;;;3.50;0.90;;;-0.40;94.70;;;;;;4983015;28;20513;-62
2023/02/27 00:52:05;;;;;;;1.85;0.70;;;-0.50;94.70;;;;;;4978073;28;20046;-62
2023/02/27 00:54:31;;;;;;;2.45;0.75;;;-0.50;94.90;;;;;;4966704;28;20043;-62
2023/02/27 00:56:57;;;;;;;1.35;0.65;;;-0.60;95.10;;;;;;4975613;28;20043;-62
2023/02/27 00:59:22;;;;;;;2.25;0.65;;;-0.60;95.20;;;;;;4981791;28;20039;-62
2023/02/27 01:01:48;;;;;;;5.60;1.23;;;-0.60;95.40;;;;;;4970853;28;20066;-62
2023/02/27 01:04:14;;;;;;;4.53;0.90;;;-0.60;95.80;;;;;;4953703;28;20501;-62
2023/02/27 01:06:40;;;;;;;3.47;0.75;;;-0.60;96.20;;;;;;4971294;28;20050;-62
2023/02/27 01:09:06;;;;;;;7.38;1.00;;;-0.70;96.30;;;;;;4982919;28;20057;-62
2023/02/27 01:11:31;;;;;;;1.30;0.60;;;-0.70;96.50;;;;;;4969990;28;20051;-62
2023/02/27 01:13:57;;;;;;;1.20;0.63;;;-0.70;96.60;;;;;;4969925;28;20046;-62
2023/02/27 01:16:23;;;;;;;3.60;1.02;;;-0.70;96.80;;;;;;4970259;28;20046;-62
2023/02/27 01:18:48;;;;;;;1.77;0.63;;;-0.70;96.80;;;;;;4951920;28;20187;-77
2023/02/27 01:21:15;;;;;;;1.25;0.45;;;-0.70;96.70;;;;;;4959175;28;20066;-62
2023/02/27 01:23:41;;;;;;;1.63;0.80;;;-0.80;96.50;;;;;;4969023;28;20062;-62
2023/02/27 01:26:06;;;;;;;3.42;0.70;;;-0.80;96.70;;;;;;4971767;28;20043;-83
2023/02/27 01:28:33;;;;;;;5.65;0.98;;;-0.80;96.70;;;;;;4982744;28;20046;-62
2023/02/27 01:30:58;;;;;;;4.32;0.90;;;-0.80;97.00;;;;;;4970349;28;20062;-62
2023/02/27 01:33:24;;;;;;;2.55;0.70;;;-0.80;97.40;;;;;;4970048;28;20047;-62
2023/02/27 01:35:50;;;;;;;9.10;1.08;;;-0.80;97.60;;;;;;4969309;28;20043;-62
2023/02/27 01:38:16;;;;;;;1.88;0.60;;;-0.80;98.00;;;;;;4972470;28;20383;-62
2023/02/27 01:40:42;;;;;;;3.92;0.88;;;-0.90;98.20;;;;;;4968341;28;20122;-62
2023/02/27 01:43:18;;;;;;;1.60;0.90;;;-0.80;98.40;;;;;;4970455;28;20171;-75
2023/02/27 01:45:47;;;;;;;4.13;0.70;;;-0.80;98.50;;;;;;4967447;28;20058;-62
2023/02/27 01:48:26;;;;;;;2.85;0.82;;;-0.80;99.60;;;;;;4970627;28;21046;-62
2023/02/27 01:50:58;;;;;;;5.75;0.75;;;-0.70;99.90;;;;;;4970023;28;20050;-62
2023/02/27 01:53:27;;;;;;;6.00;1.42;;;-0.70;99.80;;;;;;4968460;28;20046;-62
2023/02/27 01:55:58;;;;;;;3.95;0.90;;;-0.70;99.60;;;;;;4970307;28;20386;-62
2023/02/27 01:58:25;;;;;;;13.45;1.52;;;-0.70;99.90;;;;;;4969129;28;20051;-62
2023/02/27 02:00:52;;;;;;;3.63;1.00;;;-0.50;99.90;;;;;;4969073;28;20047;-62
2023/02/27 02:03:30;;;;;;;7.35;0.77;;;-0.30;99.90;;;;;;4975885;28;20057;-62
2023/02/27 02:05:57;;;;;;;16.42;0.80;;;-0.10;99.90;;;;;;4967482;28;20051;-62
2023/02/27 02:08:26;;;;;;;7.50;1.00;;;0.10;99.90;;;;;;4970513;28;20042;-62
2023/02/27 02:10:53;;;;;;;9.45;1.65;;;0.20;99.90;;;;;;4968215;28;20081;-62
2023/02/27 02:13:21;;;;;;;13.55;1.25;;;0.40;99.90;;;;;;4969463;28;20053;-62
2023/02/27 02:16:35;;;;;;;10.80;1.58;;;0.50;99.90;;;;;;4967999;28;20118;-62
2023/02/27 02:19:31;;;;;;;9.88;1.40;;;0.70;99.90;;;;;;4968739;28;20042;-80
2023/02/27 02:22:23;;;;;;;11.88;1.13;;;0.80;99.90;;;;;;4969009;28;20429;-62
2023/02/27 02:25:07;;;;;;;22.00;1.90;;;0.90;99.90;;;;;;4967001;28;20068;-62
2023/02/27 02:27:44;;;;;;;15.48;1.30;;;1.00;99.90;;;;;;4966764;28;20525;-62
2023/02/27 02:30:35;;;;;;;17.60;1.60;;;1.10;99.90;;;;;;4969903;28;20050;-62
2023/02/27 02:33:22;;;;;;;14.77;1.10;;;1.20;99.90;;;;;;4967150;28;20072;-62
2023/02/27 02:35:57;;;;;;;12.82;1.50;;;1.30;99.90;;;;;;4967840;28;20527;-62
2023/02/27 02:38:28;;;;;;;7.50;1.00;;;1.30;99.90;;;;;;4968439;28;20070;-62
2023/02/27 02:41:15;;;;;;;14.63;1.60;;;1.30;99.90;;;;;;4968270;28;20477;-63
2023/02/27 02:44:08;;;;;;;11.15;1.42;;;1.30;99.90;;;;;;4976020;28;20046;-62
2023/02/27 02:46:53;;;;;;;10.63;1.45;;;1.30;99.90;;;;;;4974458;28;20494;-62
2023/02/27 02:49:48;;;;;;;12.13;0.95;;;1.30;99.90;;;;;;4955411;28;20058;-62
2023/02/27 02:52:52;;;;;;;6.68;0.93;;;1.20;99.80;;;;;;4970101;28;20073;-62
2023/02/27 02:55:32;;;;;;;4.47;0.93;;;1.00;99.00;;;;;;4949185;28;20050;-62
2023/02/27 02:58:11;;;;;;;13.43;1.20;;;0.80;98.80;;;;;;4979010;28;20084;-62
2023/02/27 03:00:45;;;;;;;5.82;1.10;;;0.80;99.40;;;;;;4962071;28;20564;-61
2023/02/27 03:03:28;;;;;;;14.43;1.40;;;0.80;99.90;;;;;;4972152;28;20469;-62
2023/02/27 03:06:13;;;;;;;8.38;1.35;;;0.80;99.90;;;;;;4973525;28;20580;-62
2023/02/27 03:08:49;;;;;;;7.47;1.10;;;0.80;99.90;;;;;;4984060;28;20090;-62
2023/02/27 03:11:14;;;;;;;10.93;1.45;;;0.80;99.90;;;;;;4968536;28;20509;-62
2023/02/27 03:13:53;;;;;;;5.82;1.13;;;0.80;99.90;;;;;;4950541;28;20141;-61
2023/02/27 03:16:52;;;;;;;12.30;1.95;;;0.90;99.90;;;;;;4971659;28;20046;-62
2023/02/27 03:19:32;;;;;;;7.30;1.23;;;1.00;99.90;;;;;;4965594;28;20059;-62
2023/02/27 03:22:15;;;;;;;18.58;1.58;;;1.00;99.90;;;;;;4926835;28;1140137;-62
2023/02/27 03:24:46;;;;;;;10.13;1.25;;;1.00;99.90;;;;;;4971709;28;20512;-62
2023/02/27 03:27:12;;;;;;;12.05;1.45;;;0.90;99.90;;;;;;4973764;28;20496;-62
2023/02/27 03:30:00;;;;;;;19.02;1.52;;;0.90;99.90;;;;;;4971894;28;20047;-62
2023/02/27 03:32:58;;;;;;;13.07;1.20;;;0.90;99.90;;;;;;4971842;28;20046;-62
2023/02/27 03:35:35;;;;;;;18.90;1.58;;;0.80;99.90;;;;;;4964447;28;20055;-62
2023/02/27 03:38:23;;;;;;;7.75;0.93;;;0.70;99.90;;;;;;4971170;28;20128;-62
2023/02/27 03:41:07;;;;;;;14.85;0.90;;;0.70;99.90;;;;;;4970768;28;20046;-62
2023/02/27 03:43:57;;;;;;;13.93;1.77;;;0.60;99.90;;;;;;4985280;28;20133;-62
2023/02/27 03:46:25;;;;;;;13.02;1.25;;;0.60;99.90;;;;;;4971370;28;20500;-62
2023/02/27 03:48:51;;;;;;;14.85;1.50;;;0.60;99.90;;;;;;4971873;28;20042;-62
2023/02/27 03:51:23;;;;;;;10.90;0.90;;;0.60;99.90;;;;;;4973241;28;20089;-62
2023/02/27 03:53:57;;;;;;;14.77;1.40;;;0.60;99.90;;;;;;4973854;28;20086;-62
2023/02/27 03:56:29;;;;;;;12.48;1.17;;;0.60;99.90;;;;;;4974985;28;20051;-62
2023/02/27 03:58:55;;;;;;;8.35;1.50;;;0.50;99.90;;;;;;4983286;28;20058;-62
2023/02/27 04:01:21;;;;;;;6.85;1.25;;;0.40;99.90;;;;;;4983974;28;20078;-62
2023/02/27 04:03:59;;;;;;;6.53;1.13;;;0.40;99.90;;;;;;4975924;28;20042;-62
2023/02/27 04:09:15;;;;;;;14.50;1.80;;;0.30;99.90;;;;;;4984097;28;20097;-62
2023/02/27 04:12:16;;;;;;;21.00;1.67;;;0.40;99.90;;;;;;4970726;28;20489;-62
2023/02/27 04:15:17;;;;;;;18.30;1.58;;;0.70;99.90;;;;;;4936805;28;20062;-62
2023/02/27 04:18:11;;;;;;;17.45;1.83;;;0.90;99.90;;;;;;4976078;28;20089;-62
2023/02/27 04:20:55;;;;;;;14.20;1.42;;;1.00;99.90;;;;;;4970030;28;20429;-62
2023/02/27 04:23:44;;;;;;;14.40;1.17;;;1.10;99.90;;;;;;4961428;28;20054;-62
2023/02/27 04:26:24;;;;;;;14.35;1.45;;;1.10;99.90;;;;;;4975461;28;20482;-63
2023/02/27 04:29:03;;;;;;;14.15;1.45;;;1.20;99.90;;;;;;4969640;28;20709;-62
2023/02/27 04:31:40;;;;;;;10.63;1.60;;;1.20;99.90;;;;;;4971585;28;20038;-62
2023/02/27 04:34:14;;;;;;;13.65;1.40;;;1.10;99.90;;;;;;4974248;28;20672;-62
2023/02/27 04:36:55;;;;;;;11.90;1.60;;;1.00;99.90;;;;;;4971583;28;20070;-62
2023/02/27 04:39:29;;;;;;;16.08;1.50;;;0.90;99.90;;;;;;4953877;28;20046;-62
2023/02/27 04:42:10;;;;;;;9.48;1.40;;;0.90;99.90;;;;;;4952242;28;20054;-62
2023/02/27 04:44:37;;;;;;;17.02;1.42;;;1.00;99.90;;;;;;4972233;28;20053;-62
2023/02/27 04:47:06;;;;;;;10.90;1.58;;;1.10;99.90;;;;;;4980682;28;20054;-62
2023/02/27 04:49:43;;;;;;;12.63;1.40;;;1.10;99.90;;;;;;4970741;28;20118;-62
2023/02/27 04:52:17;;;;;;;22.20;2.88;;;1.20;99.90;;;;;;4972747;28;20232;-62
2023/02/27 04:54:52;;;;;;;22.63;2.33;;;1.20;99.90;;;;;;4964688;28;20078;-62
2023/02/27 04:57:24;;;;;;;13.98;1.70;;;1.20;99.90;;;;;;4971304;28;20109;-62
2023/02/27 04:59:54;;;;;;;14.90;1.77;;;1.30;99.90;;;;;;4968931;28;20074;-62
2023/02/27 05:02:26;;;;;;;20.88;1.77;;;1.30;99.90;;;;;;4971522;28;20039;-62
2023/02/27 05:04:57;;;;;;;9.90;2.45;;;1.30;99.90;;;;;;4974323;28;20173;-62
2023/02/27 05:07:34;;;;;;;8.93;1.30;;;1.30;99.90;;;;;;4970136;28;20381;-62
2023/02/27 05:10:07;;;;;;;16.33;1.40;;;1.30;99.90;;;;;;4970126;28;20138;-62
2023/02/27 05:12:39;;;;;;;12.88;1.92;;;1.30;99.90;;;;;;4969306;28;20520;-62
2023/02/27 05:15:18;;;;;;;13.23;1.73;;;1.30;99.90;;;;;;4980128;28;20043;-62
2023/02/27 05:18:05;;;;;;;19.25;1.98;;;1.40;99.90;;;;;;4969786;28;20066;-62
2023/02/27 05:21:00;;;;;;;14.73;1.42;;;1.40;99.90;;;;;;4974028;28;20061;-62
2023/02/27 05:23:34;;;;;;;10.57;1.58;;;1.40;99.90;;;;;;4970348;28;20050;-87
2023/02/27 05:26:13;;;;;;;9.90;1.58;;;1.40;99.90;;;;;;4951487;28;20050;-62
2023/02/27 05:28:57;;;;;;;20.35;1.95;;;1.40;99.90;;;;;;4969876;28;20051;-62
2023/02/27 05:31:45;;;;;;;18.23;2.30;;;1.40;99.90;;;;;;4970857;28;20047;-62
2023/02/27 05:34:21;;;;;;;16.08;1.75;;;1.50;99.90;;;;;;4968341;28;20520;-62
2023/02/27 05:36:54;;;;;;;13.00;1.30;;;1.50;99.90;;;;;;4972166;28;20046;-62
2023/02/27 05:39:24;;;;;;;15.50;1.95;;;1.40;99.90;;;;;;4952001;28;20122;-62
2023/02/27 05:41:57;;;;;;;14.73;1.85;;;1.40;99.90;;;;;;4968997;28;20047;-62
2023/02/27 05:44:26;;;;;;;21.90;2.05;;;1.40;99.90;;;;;;4969734;28;20073;-82
2023/02/27 05:46:57;;;;;;;13.57;1.42;;;1.50;99.90;;;;;;4969555;28;20090;-62
2023/02/27 05:49:50;;;;;;;14.02;2.08;;;1.50;99.90;;;;;;4970199;28;20064;-62
2023/02/27 05:52:19;;;;;;;17.23;1.67;;;1.50;99.90;;;;;;4968155;28;20473;-62
2023/02/27 05:55:02;;;;;;;14.75;1.67;;;1.60;99.90;;;;;;4968914;28;20034;-62
2023/02/27 05:57:53;;;;;;;18.38;2.22;;;1.60;99.90;;;;;;4952506;28;20039;-62
2023/02/27 06:00:23;;;;;;;14.02;1.63;;;1.70;99.90;;;;;;4935858;28;20069;-62
2023/02/27 06:02:49;;;;;;;9.50;1.73;;;1.70;99.90;;;;;;4967777;28;20093;-62
2023/02/27 06:05:17;;;;;;;11.30;1.58;;;1.70;99.90;;;;;;4971346;28;20086;-62
2023/02/27 06:07:43;;;;;;;10.65;1.38;;;1.70;99.90;;;;;;4969994;28;20117;-62
2023/02/27 06:10:13;;;;;;;19.75;1.98;;;1.80;99.90;;;;;;4969157;28;20097;-62
2023/02/27 06:12:39;;;;;;;8.38;1.52;;;1.80;99.90;;;;;;4967873;28;20047;-62
2023/02/27 06:15:06;;;;;;;20.58;2.13;;;1.80;99.90;;;;;;4969275;28;20551;-62
2023/02/27 06:17:31;;;;;;;10.60;1.50;;;1.80;99.90;;;;;;4968969;28;20031;-62
2023/02/27 06:19:57;;;;;;;15.90;1.60;;;1.90;99.90;;;;;;4952414;28;20057;-62
2023/02/27 06:22:23;;;;;;;6.60;1.40;;;2.00;99.90;;;;;;4967547;28;20134;-62
2023/02/27 06:24:48;;;;;;;5.95;1.60;;;2.00;99.90;;;;;;4968958;28;20063;-62
2023/02/27 06:27:14;;;;;;;19.77;1.80;;;2.00;99.90;;;;;;4970143;28;20091;-62
2023/02/27 06:29:40;;;;;;;21.65;2.00;;;2.10;99.90;;;;;;4967654;28;20042;-62
2023/02/27 06:32:05;;;;;;;9.68;1.70;;;2.00;99.90;;;;;;4969188;28;20059;-62
2023/02/27 06:34:31;;;;;;;11.20;1.90;;;2.10;99.90;;;;;;4950390;28;20113;-62
2023/02/27 06:36:57;;;;;;;15.73;1.25;;;2.00;99.90;;;;;;4969311;28;20038;-62
2023/02/27 06:39:22;;;;;;;16.38;1.80;;;2.00;99.90;;;;;;4968345;28;20247;-62
2023/02/27 06:41:48;;;;;;;8.15;1.90;;;2.00;99.90;;;;;;4969098;28;20051;-62
2023/02/27 06:44:14;;;;;;;8.65;1.38;;;2.10;99.90;;;;;;4977122;28;20050;-62
2023/02/27 06:46:40;;;;;;;9.02;1.42;;;2.10;99.90;;;;;;4970038;28;20062;-62
2023/02/27 06:49:05;;;;;;;8.60;2.20;;;2.10;99.90;;;;;;4958254;28;20046;-62
2023/02/27 06:51:31;;;;;;;9.70;1.60;;;2.10;99.90;;;;;;4971590;28;20493;-62
2023/02/27 06:53:57;;;;;;;6.90;1.15;;;2.10;99.90;;;;;;4968758;28;20046;-83
2023/02/27 06:56:23;;;;;;;10.38;2.03;;;2.10;99.90;;;;;;4966971;28;20070;-62
2023/02/27 06:58:48;;;;;;;7.57;1.70;;;2.20;99.90;;;;;;4971081;28;20042;-62
2023/02/27 07:01:14;;;;;;;13.88;2.40;;;2.20;99.90;;;;;;4979163;28;20042;-62
2023/02/27 07:03:40;;;;;;;7.05;1.30;;;2.30;99.90;;;;;;4969011;28;20059;-62
2023/02/27 07:06:05;;;;;;;20.95;1.90;;;2.30;99.90;;;;;;4968912;28;20047;-62
2023/02/27 07:08:31;;;;;;;9.40;1.67;;;2.40;99.90;;;;;;4966623;28;20169;-62
2023/02/27 07:10:57;;;;;;;8.75;1.40;;;2.50;99.90;;;;;;4981736;28;20079;-62
2023/02/27 07:13:23;;;;;;;6.80;1.40;;;2.50;99.90;;;;;;4966847;28;20053;-62
2023/02/27 07:15:49;;;;;;;11.75;1.50;;;2.50;99.90;;;;;;4968775;28;20059;-62
2023/02/27 07:18:15;;;;;;;9.65;1.80;;;2.60;99.90;;;;;;4967151;28;20047;-82
2023/02/27 07:20:41;;;;;;;7.60;1.63;;;2.70;99.90;;;;;;4981868;28;20530;-62
2023/02/27 07:23:07;;;;;;;6.05;1.10;;;2.80;99.90;;;;;;4976423;28;20056;-62
2023/02/27 07:25:32;;;;;;;6.63;1.50;;;2.80;99.90;;;;;;4974376;28;20047;-62
2023/02/27 07:27:58;;;;;;;15.60;1.83;;;2.80;99.90;;;;;;4971770;28;20043;-63
2023/02/27 07:30:24;;;;;;;13.80;1.70;;;2.90;99.90;;;;;;4952833;28;20051;-62
2023/02/27 07:32:50;;;;;;;12.63;1.58;;;3.00;99.90;;;;;;4976740;28;20044;-62
2023/02/27 07:35:16;;;;;;;16.30;1.98;;;3.00;99.90;;;;;;4967158;28;20393;-62
2023/02/27 07:37:41;;;;;;;7.25;1.80;;;3.00;99.90;;;;;;4968511;28;20042;-63
2023/02/27 07:40:08;;;;;;;13.48;1.67;;;3.10;99.90;;;;;;4967657;28;20139;-62
2023/02/27 07:42:34;;;;;;;11.80;2.03;;;3.10;99.90;;;;;;4968589;28;20537;-62
2023/02/27 07:45:00;;;;;;;11.73;1.70;;;3.10;99.90;;;;;;4968433;28;20174;-62
2023/02/27 07:47:26;;;;;;;6.38;1.30;;;3.20;99.90;;;;;;4949262;28;20047;-62
2023/02/27 07:49:52;;;;;;;15.15;1.50;;;3.20;99.90;;;;;;4968584;28;20117;-62
2023/02/27 07:52:17;;;;;;;8.48;1.60;;;3.30;99.90;;;;;;4949390;28;20046;-67
2023/02/27 07:54:43;;;;;;;10.98;1.75;;;3.30;99.90;;;;;;4968432;28;20055;-62
2023/02/27 07:57:09;;;;;;;11.30;1.48;;;3.40;99.90;;;;;;4967252;28;20043;-62
2023/02/27 07:59:34;;;;;;;14.40;1.55;;;3.50;99.90;;;;;;4982528;28;20049;-62
2023/02/27 08:02:00;;;;;;;6.70;1.02;;;3.50;99.90;;;;;;4972688;28;20496;-62
2023/02/27 08:04:26;;;;;;;8.88;1.48;;;3.60;99.80;;;;;;4972632;28;20508;-62
2023/02/27 08:06:52;;;;;;;6.47;1.10;;;3.80;99.50;;;;;;4975163;28;20050;-62
2023/02/27 08:09:17;;;;;;;9.32;1.27;;;3.80;98.90;;;;;;4971020;28;20069;-63
2023/02/27 08:11:43;;;;;;;11.48;1.23;;;3.90;98.40;;;;;;4972578;28;20038;-62
2023/02/27 08:14:09;;;;;;;4.65;1.10;;;3.90;96.80;;;;;;4971153;28;20109;-62
2023/02/27 08:16:34;;;;;;;7.50;2.45;;;3.90;94.80;;;;;;4971109;28;20045;-62
2023/02/27 08:19:00;;;;;;;8.52;1.17;;;4.00;93.90;;;;;;4972635;28;20519;-62
2023/02/27 08:21:26;;;;;;;5.55;1.10;;;4.10;93.00;;;;;;4974081;28;20046;-73
2023/02/27 08:23:53;;;;;;;5.85;1.02;;;4.10;91.40;;;;;;4981752;28;20109;-62
2023/02/27 08:26:20;;;;;;;11.88;1.33;;;4.20;89.40;;;;;;4956023;28;20090;-62
2023/02/27 08:28:46;;;;;;;13.75;1.30;;;4.20;90.60;;;;;;4975218;28;20393;-62
2023/02/27 08:31:12;;;;;;;10.10;1.73;;;4.20;91.80;;;;;;4970881;28;20090;-62
2023/02/27 08:33:37;;;;;;;4.90;1.38;;;4.30;91.50;;;;;;4971409;28;20752;-62
2023/02/27 08:36:03;;;;;;;8.65;1.73;;;4.30;90.20;;;;;;4971339;28;20065;-63
2023/02/27 08:38:29;;;;;;;12.20;1.52;;;4.40;91.10;;;;;;4975057;28;20427;-62
2023/02/27 08:40:55;;;;;;;5.57;1.27;;;4.40;91.40;;;;;;4959707;28;20034;-62
2023/02/27 08:43:22;;;;;;;11.25;1.77;;;4.40;91.30;;;;;;4955374;28;20058;-62
2023/02/27 08:45:48;;;;;;;5.00;1.70;;;4.40;88.70;;;;;;4981554;28;20449;-62
2023/02/27 08:48:16;;;;;;;8.43;1.40;;;4.50;90.30;;;;;;4978892;28;20047;-62
2023/02/27 08:50:42;;;;;;;4.60;1.00;;;4.50;90.40;;;;;;4972583;28;20157;-62
2023/02/27 08:53:08;;;;;;;4.95;1.75;;;4.50;90.50;;;;;;4951939;28;20118;-62
2023/02/27 08:55:34;;;;;;;4.63;1.52;;;4.60;90.70;;;;;;4946631;28;20147;-62
2023/02/27 08:58:00;;;;;;;11.82;1.75;;;4.70;87.50;;;;;;4946187;28;20492;-62
2023/02/27 09:00:25;;;;;;;4.43;1.45;;;4.70;85.70;;;;;;4954875;28;20043;-64
2023/02/27 09:02:52;;;;;;;8.45;1.65;;;4.70;82.20;;;;;;4958370;28;20099;-62
2023/02/27 09:05:18;;;;;;;13.00;1.85;;;4.80;83.40;;;;;;4970804;28;20030;-62
2023/02/27 09:07:44;;;;;;;10.48;1.50;;;4.70;80.80;;;;;;4971411;28;20133;-62
2023/02/27 09:10:11;;;;;;;8.10;1.25;;;4.80;83.40;;;;;;4958218;28;20073;-62
2023/02/27 09:12:37;;;;;;;6.65;1.08;;;4.80;79.00;;;;;;4974044;28;20042;-90
2023/02/27 09:15:05;;;;;;;8.57;1.25;;;4.90;79.90;;;;;;4946561;28;20047;-62
2023/02/27 09:17:30;;;;;;;9.15;1.20;;;5.10;77.90;;;;;;4973333;28;20051;-62
2023/02/27 09:19:57;;;;;;;9.90;1.38;;;5.20;81.70;;;;;;4970498;28;20088;-62
2023/02/27 09:22:22;;;;;;;8.60;1.17;;;5.20;78.20;;;;;;4980747;28;20575;-62
2023/02/27 09:24:48;;;;;;;8.15;1.10;;;5.30;75.10;;;;;;4971932;28;20043;-61
2023/02/27 09:27:14;;;;;;;3.10;0.80;;;5.30;76.00;;;;;;4974707;28;20488;-62
2023/02/27 09:29:40;;;;;;;7.10;1.15;;;5.40;74.60;;;;;;4973325;28;20066;-62
2023/02/27 09:32:06;;;;;;;10.18;1.40;;;5.40;77.10;;;;;;4977437;28;20045;-65
2023/02/27 09:34:32;;;;;;;6.97;0.80;;;5.30;77.10;;;;;;4972566;28;20042;-62
2023/02/27 09:36:59;;;;;;;7.05;0.95;;;5.30;78.30;;;;;;4969948;28;20031;-62
2023/02/27 09:39:25;;;;;;;9.45;1.95;;;5.40;78.50;;;;;;4970668;28;20049;-62
2023/02/27 09:42:08;;;;;;;7.10;1.05;;;5.40;78.40;;;;;;4970243;28;20109;-87
2023/02/27 09:44:43;;;;;;;3.88;1.00;;;5.40;74.80;;;;;;4970933;28;20428;-64
2023/02/27 09:47:18;;;;;;;7.22;1.20;;;5.60;76.80;;;;;;4971689;28;20129;-62
2023/02/27 09:50:02;;;;;;;7.35;1.33;;;5.60;75.90;;;;;;4972449;28;20038;-62
2023/02/27 09:52:31;;;;;;;2.65;0.88;;;5.80;74.10;;;;;;4978059;28;20065;-62
2023/02/27 09:54:57;;;;;;;4.70;0.90;;;5.90;71.70;;;;;;4971903;28;20051;-62
2023/02/27 09:57:46;;;;;;;3.28;1.15;;;6.00;71.20;;;;;;4982554;28;20090;-62
2023/02/27 10:00:49;;;;;;;5.00;1.00;;;6.00;66.70;;;;;;4970947;28;20050;-62
2023/02/27 10:03:21;;;;;;;3.70;0.40;;;6.00;65.20;;;;;;4968141;28;20588;-62
2023/02/27 10:06:24;;;;;;;3.50;0.50;;;6.00;64.90;;;;;;4968684;28;20097;-68
2023/02/27 10:09:12;;;;;;;3.92;1.00;;;6.10;65.10;;;;;;4969756;28;20778;-62
2023/02/27 10:11:59;;;;;;;8.68;0.85;;;6.10;68.30;;;;;;4969152;28;20465;-62
2023/02/27 10:14:41;;;;;;;4.22;0.90;;;6.30;66.40;;;;;;4977060;28;20042;-62
2023/02/27 10:17:29;;;;;;;2.92;0.80;;;6.30;63.50;;;;;;4976160;28;20070;-62
2023/02/27 10:19:57;;;;;;;10.90;1.92;;;6.30;63.20;;;;;;4979323;28;20082;-62
2023/02/27 10:22:34;;;;;;;3.63;0.93;;;6.40;61.80;;;;;;4967870;28;20097;-62
2023/02/27 10:25:09;;;;;;;4.78;0.90;;;6.30;57.20;;;;;;4953419;28;20047;-62
2023/02/27 10:27:37;;;;;;;3.75;0.82;;;6.40;59.50;;;;;;4968544;28;20078;-62
2023/02/27 10:30:23;;;;;;;3.42;0.65;;;6.50;59.10;;;;;;4977554;28;20038;-61
2023/02/27 10:33:06;;;;;;;2.55;0.40;;;6.50;49.60;;;;;;4969007;28;20493;-78
2023/02/27 10:35:42;;;;;;;7.70;0.75;;;6.40;52.00;;;;;;4968581;28;20054;-62
2023/02/27 10:38:18;;;;;;;4.13;0.93;;;6.20;54.20;;;;;;4951796;28;20061;-61
2023/02/27 10:40:45;;;;;;;4.70;0.63;;;6.20;49.90;;;;;;4969421;28;20050;-62
2023/02/27 10:43:15;;;;;;;4.60;0.93;;;6.10;53.20;;;;;;4972255;28;20046;-62
2023/02/27 10:45:42;;;;;;;2.83;0.50;;;6.20;53.10;;;;;;4971314;28;20035;-61
2023/02/27 10:48:09;;;;;;;2.17;0.73;;;6.30;50.10;;;;;;4968768;28;20497;-62
2023/02/27 10:50:50;;;;;;;3.58;0.65;;;6.50;44.00;;;;;;4970444;28;20035;-62
2023/02/27 10:53:23;;;;;;;1.60;0.57;;;6.60;38.10;;;;;;4971663;28;21110;-62
2023/02/27 10:56:06;;;;;;;2.67;0.80;;;6.60;41.70;;;;;;4936550;28;20497;-61
2023/02/27 10:58:36;;;;;;;1.77;0.30;;;6.60;41.50;;;;;;4981813;28;20078;-62
2023/02/27 11:01:21;;;;;;;1.15;0.82;;;6.80;40.80;;;;;;4977835;28;20587;-61
2023/02/27 11:03:54;;;;;;;0.93;0.35;;;6.60;36.20;;;;;;4985705;28;20553;-62
2023/02/27 11:06:23;;;;;;;3.83;0.40;;;6.40;35.20;;;;;;4974975;28;20137;-62
2023/02/27 11:09:09;;;;;;;2.50;0.50;;;6.40;40.80;;;;;;4969805;28;20039;-62
2023/02/27 11:11:35;;;;;;;6.47;0.50;;;6.40;44.80;;;;;;4975316;28;20054;-82
2023/02/27 11:14:17;;;;;;;1.65;0.40;;;6.40;36.30;;;;;;4968143;28;20043;-62
2023/02/27 11:16:52;;;;;;;2.30;0.47;;;6.50;44.70;;;;;;4950918;28;20039;-61
2023/02/27 11:19:25;;;;;;;3.38;0.40;;;6.70;38.60;;;;;;4950409;28;20054;-62
2023/02/27 11:22:03;;;;;;;3.15;0.50;;;6.70;37.90;;;;;;4987334;28;20150;-62
2023/02/27 11:24:29;;;;;;;1.08;0.30;;;6.80;38.40;;;;;;4970499;28;20062;-61
2023/02/27 11:27:16;;;;;;;3.60;0.40;;;6.80;37.50;;;;;;4967773;28;20054;-61
2023/02/27 11:29:56;;;;;;;3.25;0.50;;;6.90;41.90;;;;;;4968255;28;20050;-61
2023/02/27 11:32:24;;;;;;;;;;;7.10;40.60;;;;;;4972909;28;20120;-62
2023/02/27 11:34:51;;;;;;;6.60;0.63;;;7.20;34.40;;;;;;4960780;28;19921;-62
2023/02/27 11:37:32;;;;;;;2.00;0.60;;;7.10;38.10;;;;;;4969011;28;20050;-62
2023/02/27 11:40:14;;;;;;;4.55;1.42;;;6.90;38.90;;;;;;4970901;28;20393;-61
2023/02/27 11:42:50;;;;;;;0.80;0.40;;;6.80;38.20;;;;;;4972134;28;20105;-61
2023/02/27 11:45:41;;;;;;;1.20;0.55;;;6.70;38.10;;;;;;4977068;28;20049;-62
2023/02/27 11:48:33;;;;;;;2.33;0.60;;;6.70;34.10;;;;;;4974583;28;20050;-62
2023/02/27 11:51:29;;;;;;;2.13;0.45;;;6.70;35.60;;;;;;4973743;28;20043;-62
2023/02/27 11:54:31;;;;;;;4.00;0.30;;;7.00;36.30;;;;;;4973362;28;20054;-61
2023/02/27 11:57:09;;;;;;;2.47;0.98;;;7.10;34.10;;;;;;4956548;28;20057;-62
2023/02/27 11:59:41;;;;;;;3.42;0.40;;;7.20;36.20;;;;;;4975818;28;20050;-62
2023/02/27 12:02:29;;;;;;;1.35;0.22;;;7.30;32.30;;;;;;4962932;28;20078;-61
2023/02/27 12:05:13;;;;;;;1.05;0.40;;;7.40;29.00;;;;;;4955647;28;20520;-62
2023/02/27 12:08:10;;;;;;;3.97;0.40;;;7.30;31.20;;;;;;4987606;28;20042;-62
2023/02/27 12:10:49;;;;;;;0.60;0.13;;;7.30;29.50;;;;;;4971083;28;20055;-61
2023/02/27 12:13:22;;;;;;;2.92;0.40;;;7.40;30.00;;;;;;4981288;28;20101;-61
2023/02/27 12:16:06;;;;;;;0.85;0.43;;;7.60;33.50;;;;;;4970407;28;20726;-62
2023/02/27 12:18:50;;;;;;;2.20;0.38;;;7.60;28.90;;;;;;4955473;28;20035;-62
2023/02/27 12:21:40;;;;;;;3.60;0.40;;;7.60;28.60;;;;;;4980333;28;20046;-81
2023/02/27 12:24:19;;;;;;;3.30;0.50;;;7.50;25.40;;;;;;4960415;28;20291;-62
2023/02/27 12:26:49;;;;;;;0.38;0.30;;;7.50;27.50;;;;;;4983080;28;20043;-62
2023/02/27 12:29:35;;;;;;;2.92;0.40;;;7.50;28.60;;;;;;4973296;28;20038;-62
2023/02/27 12:32:39;;;;;;;2.25;0.38;;;7.60;23.70;;;;;;4980862;28;20050;-69
2023/02/27 12:35:34;;;;;;;1.52;0.50;;;7.90;28.40;;;;;;4888583;29;20069;-82
2023/02/27 12:38:01;;;;;;;4.70;0.60;;;7.80;26.00;;;;;;4888932;29;20096;-62
2023/02/27 12:40:38;;;;;;;0.73;0.47;;;7.60;25.30;;;;;;4946244;28;20051;-89
2023/02/27 12:43:45;;;;;;;3.47;0.68;;;7.60;27.60;;;;;;4957428;28;20054;-62
2023/02/27 12:46:13;;;;;;;3.75;0.30;;;7.80;28.80;;;;;;4887675;29;20128;-62
2023/02/27 12:49:05;;;;;;;2.30;0.25;;;7.70;26.30;;;;;;4888553;29;20571;-62
2023/02/27 12:51:46;;;;;;;1.10;0.32;;;7.50;26.00;;;;;;4937981;28;20061;-62
2023/02/27 12:54:31;;;;;;;1.20;0.20;;;7.30;24.90;;;;;;4972179;28;20038;-62
2023/02/27 12:57:02;;;;;;;2.38;0.52;;;7.30;23.30;;;;;;4972689;28;20078;-62
2023/02/27 12:59:53;;;;;;;2.08;0.30;;;7.50;24.20;;;;;;4968962;28;20039;-64
2023/02/27 13:02:29;;;;;;;2.53;0.63;;;7.70;22.50;;;;;;4976833;28;20046;-60
2023/02/27 13:05:06;;;;;;;1.98;0.43;;;7.50;24.70;;;;;;4970147;28;20478;-60
2023/02/27 13:07:52;;;;;;;1.88;0.28;;;7.50;23.60;;;;;;4972542;28;20046;-60
2023/02/27 13:10:35;;;;;;;2.83;0.50;;;7.60;23.70;;;;;;4972238;28;20050;-60
2023/02/27 13:13:19;;;;;;;4.25;0.60;;;7.70;26.80;;;;;;4961676;28;20503;-60
2023/02/27 13:15:49;;;;;;;3.13;0.50;;;7.70;31.50;;;;;;4955761;28;20042;-60
2023/02/27 13:18:30;;;;;;;1.80;0.38;;;7.60;31.50;;;;;;4972191;28;20125;-60
2023/02/27 13:20:58;;;;;;;3.63;0.50;;;7.70;27.70;;;;;;4973101;28;20031;-60
2023/02/27 13:23:47;;;;;;;0.98;0.30;;;7.70;27.50;;;;;;4972147;28;20489;-60
2023/02/27 13:26:27;;;;;;;1.42;0.30;;;7.70;26.70;;;;;;4971198;28;20537;-61
2023/02/27 13:28:54;;;;;;;4.13;0.55;;;7.50;26.80;;;;;;4967712;28;20505;-60